createdAt,value
2018-05-25T00:00:59.232Z,63.34
2018-05-25T00:03:27.587Z,64.20
2018-05-25T00:05:56.818Z,63.32
2018-05-25T00:08:25.209Z,64.01
2018-05-25T00:10:54.037Z,64.42
2018-05-25T00:13:24.111Z,63.53
2018-05-25T00:15:52.426Z,64.29
2018-05-25T00:18:20.804Z,63.77
2018-05-25T00:20:49.151Z,63.10
2018-05-25T00:23:17.506Z,62.70
2018-05-25T00:25:46.785Z,63.07
2018-05-25T00:28:15.103Z,62.26
2018-05-25T00:30:43.436Z,63.25
2018-05-25T00:33:11.764Z,62.54
2018-05-25T00:35:40.204Z,62.72
2018-05-25T00:38:08.554Z,63.49
2018-05-25T00:40:36.877Z,62.95
2018-05-25T00:43:05.272Z,63.44
2018-05-25T00:45:33.600Z,63.90
2018-05-25T00:48:02.048Z,65.06
2018-05-25T00:50:30.445Z,64.08
2018-05-25T00:52:58.814Z,64.45
2018-05-25T00:55:41.541Z,65.28
2018-05-25T00:58:09.977Z,64.87
2018-05-25T01:00:38.436Z,65.13
2018-05-25T01:03:06.838Z,64.48
2018-05-25T01:05:35.183Z,64.26
2018-05-25T01:08:03.611Z,65.05
2018-05-25T01:10:33.309Z,64.64
2018-05-25T01:13:01.622Z,65.00
2018-05-25T01:15:30.017Z,65.44
2018-05-25T01:17:58.377Z,64.34
2018-05-25T01:20:26.697Z,64.55
2018-05-25T01:22:55.996Z,64.74
2018-05-25T01:25:24.315Z,64.35
2018-05-25T01:27:52.648Z,64.33
2018-05-25T01:30:20.983Z,65.23
2018-05-25T01:32:49.316Z,64.47
2018-05-25T01:35:17.668Z,64.47
2018-05-25T01:37:46.013Z,64.14
2018-05-25T01:40:14.347Z,64.28
2018-05-25T01:42:42.708Z,64.56
2018-05-25T01:45:11.014Z,65.12
2018-05-25T01:47:39.423Z,64.88
2018-05-25T01:50:08.966Z,64.72
2018-05-25T01:52:38.190Z,64.26
2018-05-25T01:55:06.547Z,64.38
2018-05-25T01:57:34.863Z,64.64
2018-05-25T02:00:03.216Z,63.59
2018-05-25T02:02:32.476Z,64.22
2018-05-25T02:05:01.037Z,63.27
2018-05-25T02:07:29.381Z,63.09
2018-05-25T02:09:57.715Z,62.92
2018-05-25T02:12:26.118Z,63.11
2018-05-25T02:14:54.996Z,64.72
2018-05-25T02:17:23.632Z,64.58
2018-05-25T02:19:51.981Z,63.89
2018-05-25T02:22:20.447Z,64.24
2018-05-25T02:24:48.896Z,63.76
2018-05-25T02:27:17.214Z,63.26
2018-05-25T02:29:45.628Z,63.34
2018-05-25T02:32:13.941Z,63.53
2018-05-25T02:34:42.312Z,65.08
2018-05-25T02:37:10.633Z,65.15
2018-05-25T02:39:39.044Z,65.43
2018-05-25T02:42:07.314Z,64.98
2018-05-25T02:44:35.635Z,64.27
2018-05-25T02:47:03.989Z,65.24
2018-05-25T02:49:32.328Z,65.24
2018-05-25T02:52:00.660Z,64.41
2018-05-25T02:54:28.983Z,64.79
2018-05-25T02:56:57.388Z,63.95
2018-05-25T02:59:25.721Z,64.17
2018-05-25T03:01:54.060Z,64.43
2018-05-25T03:04:22.397Z,64.50
2018-05-25T03:06:50.711Z,64.31
2018-05-25T03:09:19.030Z,64.37
2018-05-25T03:11:47.369Z,64.29
2018-05-25T03:14:16.479Z,64.66
2018-05-25T03:16:44.866Z,64.68
2018-05-25T03:19:13.235Z,66.50
2018-05-25T03:21:41.625Z,66.03
2018-05-25T03:24:10.012Z,67.86
2018-05-25T03:26:38.406Z,66.68
2018-05-25T03:29:06.800Z,66.16
2018-05-25T03:31:35.157Z,67.64
2018-05-25T03:34:03.500Z,67.96
2018-05-25T03:36:31.819Z,68.03
2018-05-25T03:39:03.342Z,68.43
2018-05-25T03:41:31.687Z,68.84
2018-05-25T03:44:00.036Z,67.69
2018-05-25T03:46:28.345Z,68.77
2018-05-25T03:48:56.771Z,67.87
2018-05-25T03:51:25.136Z,69.51
2018-05-25T03:53:53.660Z,67.88
2018-05-25T03:56:21.963Z,67.20
2018-05-25T03:59:03.011Z,65.41
2018-05-25T04:01:43.941Z,64.80
2018-05-25T04:04:12.267Z,64.49
2018-05-25T04:06:40.648Z,64.79
2018-05-25T04:09:09.779Z,64.54
2018-05-25T04:11:38.178Z,64.67
2018-05-25T04:14:06.537Z,63.93
2018-05-25T04:16:34.889Z,63.75
2018-05-25T04:19:04.309Z,63.75
2018-05-25T04:21:32.642Z,64.07
2018-05-25T04:24:00.963Z,63.64
2018-05-25T04:26:29.278Z,65.50
2018-05-25T04:28:57.707Z,64.74
2018-05-25T04:31:26.035Z,65.40
2018-05-25T04:33:54.434Z,66.51
2018-05-25T04:36:22.748Z,66.61
2018-05-25T04:38:51.078Z,66.61
2018-05-25T04:41:19.415Z,66.08
2018-05-25T04:43:47.752Z,66.67
2018-05-25T04:46:16.150Z,64.76
2018-05-25T04:48:44.483Z,65.00
2018-05-25T04:51:12.808Z,65.88
2018-05-25T04:53:41.163Z,65.77
2018-05-25T04:56:09.500Z,63.77
2018-05-25T04:58:37.914Z,62.66
2018-05-25T05:01:06.281Z,64.15
2018-05-25T05:03:34.587Z,63.52
2018-05-25T05:06:02.938Z,61.88
2018-05-25T05:08:31.268Z,63.01
2018-05-25T05:10:59.669Z,61.11
2018-05-25T05:13:28.011Z,61.00
2018-05-25T05:15:56.363Z,60.33
2018-05-25T05:18:24.745Z,59.15
2018-05-25T05:20:53.090Z,57.91
2018-05-25T05:23:21.523Z,59.21
2018-05-25T05:25:49.850Z,59.63
2018-05-25T05:28:18.182Z,59.02
2018-05-25T05:30:46.591Z,59.80
2018-05-25T05:33:14.920Z,60.79
2018-05-25T05:35:43.279Z,60.27
2018-05-25T05:38:11.622Z,60.21
2018-05-25T05:40:39.971Z,60.02
2018-05-25T05:43:08.711Z,61.00
2018-05-25T05:45:37.100Z,60.92
2018-05-25T05:48:05.467Z,60.36
2018-05-25T05:50:33.890Z,60.00
2018-05-25T05:53:02.254Z,60.74
2018-05-25T05:55:30.647Z,60.23
2018-05-25T05:57:59.021Z,58.96
2018-05-25T06:00:27.409Z,56.28
2018-05-25T06:02:58.567Z,51.80
2018-05-25T06:05:26.961Z,48.07
2018-05-25T06:07:55.364Z,46.82
2018-05-25T06:10:23.703Z,45.72
2018-05-25T06:12:52.148Z,46.05
2018-05-25T06:15:20.489Z,44.13
2018-05-25T06:17:48.833Z,43.30
2018-05-25T06:20:17.266Z,41.06
2018-05-25T06:22:45.568Z,42.52
2018-05-25T06:25:13.910Z,41.36
2018-05-25T06:27:42.256Z,41.27
2018-05-25T06:30:10.681Z,40.46
2018-05-25T06:32:39.021Z,37.99
2018-05-25T06:35:07.364Z,37.71
2018-05-25T06:37:35.708Z,36.95
2018-05-25T06:40:04.057Z,36.67
2018-05-25T06:42:32.414Z,35.38
2018-05-25T06:45:00.740Z,35.46
2018-05-25T06:47:29.132Z,34.12
2018-05-25T06:49:57.460Z,34.32
2018-05-25T06:52:26.410Z,34.72
2018-05-25T06:54:54.788Z,33.95
2018-05-25T06:57:23.200Z,35.55
2018-05-25T07:00:09.485Z,36.25
2018-05-25T07:05:29.305Z,34.60
2018-05-25T07:07:57.623Z,35.95
2018-05-25T07:10:26.027Z,34.16
2018-05-25T07:12:54.369Z,34.12
2018-05-25T07:15:22.811Z,34.64
2018-05-25T07:17:51.201Z,34.01
2018-05-25T07:20:19.524Z,35.54
2018-05-25T07:22:47.849Z,34.67
2018-05-25T07:25:16.163Z,36.67
2018-05-25T07:27:44.577Z,37.44
2018-05-25T07:30:12.976Z,37.06
2018-05-25T07:32:41.301Z,37.25
2018-05-25T07:35:09.643Z,40.04
2018-05-25T07:37:37.969Z,41.34
2018-05-25T07:40:06.610Z,40.85
2018-05-25T07:42:34.936Z,40.03
2018-05-25T07:45:03.364Z,42.58
2018-05-25T07:47:31.692Z,42.76
2018-05-25T07:50:00.144Z,42.11
2018-05-25T07:52:28.475Z,40.63
2018-05-25T07:54:56.793Z,39.65
2018-05-25T07:57:25.135Z,39.83
2018-05-25T07:59:53.452Z,40.48
2018-05-25T08:02:21.804Z,37.68
2018-05-25T08:04:50.121Z,37.37
2018-05-25T08:07:18.464Z,39.44
2018-05-25T08:09:46.790Z,40.24
2018-05-25T08:12:15.107Z,41.07
2018-05-25T08:14:44.297Z,40.92
2018-05-25T08:17:12.635Z,42.66
2018-05-25T08:19:41.040Z,42.63
2018-05-25T08:22:09.448Z,40.33
2018-05-25T08:24:37.786Z,40.40
2018-05-25T08:27:06.099Z,40.77
2018-05-25T08:29:34.419Z,41.50
2018-05-25T08:32:02.781Z,39.87
2018-05-25T08:34:46.756Z,40.28
2018-05-25T08:37:15.133Z,34.86
2018-05-25T08:39:43.535Z,33.66
2018-05-25T08:42:11.924Z,35.20
2018-05-25T08:44:40.288Z,33.00
2018-05-25T08:47:08.706Z,33.01
2018-05-25T08:49:37.052Z,33.62
2018-05-25T08:52:05.394Z,32.38
2018-05-25T08:54:33.740Z,31.95
2018-05-25T08:57:02.067Z,30.45
2018-05-25T08:59:30.420Z,31.89
2018-05-25T09:01:58.858Z,32.14
2018-05-25T09:04:27.188Z,31.98
2018-05-25T09:06:55.511Z,32.88
2018-05-25T09:09:23.846Z,31.30
2018-05-25T09:11:52.175Z,32.00
2018-05-25T09:14:20.491Z,31.88
2018-05-25T09:16:49.162Z,30.74
2018-05-25T09:19:17.507Z,31.13
2018-05-25T09:21:45.862Z,30.71
2018-05-25T09:24:14.174Z,30.98
2018-05-25T09:26:42.574Z,30.17
2018-05-25T09:29:10.901Z,32.85
2018-05-25T09:31:39.255Z,31.73
2018-05-25T09:34:07.568Z,31.07
2018-05-25T09:36:35.906Z,32.42
2018-05-25T09:39:04.220Z,30.71
2018-05-25T09:41:32.547Z,31.97
2018-05-25T09:44:00.958Z,33.67
2018-05-25T09:46:29.312Z,32.23
2018-05-25T09:48:57.703Z,33.06
2018-05-25T09:51:25.972Z,31.36
2018-05-25T09:53:54.322Z,31.44
2018-05-25T09:56:22.653Z,32.29
2018-05-25T09:58:51.021Z,31.63
2018-05-25T10:01:19.457Z,30.40
2018-05-25T10:03:47.849Z,30.63
2018-05-25T10:06:16.180Z,29.63
2018-05-25T10:08:44.504Z,29.55
2018-05-25T10:11:12.952Z,28.90
2018-05-25T10:13:41.319Z,28.50
2018-05-25T10:16:09.700Z,28.12
2018-05-25T10:18:38.043Z,27.68
2018-05-25T10:21:06.378Z,26.89
2018-05-25T10:23:34.710Z,26.84
2018-05-25T10:26:03.033Z,26.62
2018-05-25T10:28:31.373Z,27.90
2018-05-25T10:31:00.032Z,28.58
2018-05-25T10:33:28.376Z,26.93
2018-05-25T10:35:56.751Z,28.22
2018-05-25T10:38:25.100Z,29.01
2018-05-25T10:40:56.643Z,28.94
2018-05-25T10:43:24.972Z,29.53
2018-05-25T10:45:53.307Z,29.96
2018-05-25T10:48:21.635Z,30.31
2018-05-25T10:50:49.968Z,32.63
2018-05-25T10:53:18.357Z,30.00
2018-05-25T10:55:46.675Z,30.06
2018-05-25T10:58:15.022Z,29.30
2018-05-25T11:00:43.492Z,29.96
2018-05-25T11:03:12.830Z,29.59
2018-05-25T11:05:43.998Z,29.43
2018-05-25T11:08:12.312Z,28.56
2018-05-25T11:10:40.644Z,28.88
2018-05-25T11:13:08.959Z,29.49
2018-05-25T11:15:37.365Z,28.77
2018-05-25T11:18:05.727Z,28.38
2018-05-25T11:20:34.099Z,31.33
2018-05-25T11:23:02.405Z,32.18
2018-05-25T11:25:30.798Z,31.62
2018-05-25T11:27:59.113Z,30.23
2018-05-25T11:30:27.529Z,28.95
2018-05-25T11:32:55.942Z,31.13
2018-05-25T11:35:24.291Z,30.14
2018-05-25T11:37:52.688Z,29.20
2018-05-25T11:40:21.115Z,29.27
2018-05-25T11:42:49.435Z,29.63
2018-05-25T11:45:17.757Z,27.51
2018-05-25T11:47:46.082Z,29.18
2018-05-25T11:50:14.435Z,30.76
2018-05-25T11:52:42.855Z,29.99
2018-05-25T11:55:11.264Z,28.85
2018-05-25T11:57:39.596Z,28.63
2018-05-25T12:00:08.021Z,29.86
2018-05-25T12:02:36.367Z,29.81
2018-05-25T12:05:04.737Z,28.05
2018-05-25T12:07:33.108Z,28.22
2018-05-25T12:10:01.436Z,29.33
2018-05-25T12:12:29.787Z,29.49
2018-05-25T12:14:59.152Z,29.45
2018-05-25T12:17:27.593Z,30.74
2018-05-25T12:19:55.938Z,29.55
2018-05-25T12:22:24.323Z,28.92
2018-05-25T12:24:52.646Z,27.19
2018-05-25T12:27:21.296Z,28.26
2018-05-25T12:29:50.300Z,28.47
2018-05-25T12:32:18.645Z,29.66
2018-05-25T12:34:47.055Z,30.08
2018-05-25T12:37:15.372Z,29.19
2018-05-25T12:39:43.710Z,29.08
2018-05-25T12:42:12.038Z,29.29
2018-05-25T12:44:52.109Z,28.40
2018-05-25T12:47:20.442Z,27.40
2018-05-25T12:49:48.891Z,27.43
2018-05-25T12:52:17.202Z,26.15
2018-05-25T12:54:45.541Z,25.64
2018-05-25T12:57:13.941Z,25.02
2018-05-25T12:59:42.361Z,25.95
2018-05-25T13:02:10.682Z,25.69
2018-05-25T13:04:39.036Z,24.98
2018-05-25T13:07:07.380Z,24.62
2018-05-25T13:09:35.733Z,23.47
2018-05-25T13:12:04.077Z,24.17
2018-05-25T13:14:32.422Z,24.78
2018-05-25T13:17:00.745Z,23.56
2018-05-25T13:19:29.083Z,24.36
2018-05-25T13:21:57.408Z,23.55
2018-05-25T13:24:25.768Z,24.62
2018-05-25T13:26:54.104Z,25.91
2018-05-25T13:29:22.478Z,27.37
2018-05-25T13:31:50.846Z,26.51
2018-05-25T13:34:19.228Z,26.32
2018-05-25T13:36:47.555Z,26.76
2018-05-25T13:39:15.891Z,25.09
2018-05-25T13:41:44.304Z,24.57
2018-05-25T13:44:12.636Z,25.62
2018-05-25T13:46:40.988Z,24.83
2018-05-25T13:49:09.378Z,25.24
2018-05-25T13:51:37.740Z,26.00
2018-05-25T13:54:06.170Z,25.15
2018-05-25T13:56:34.502Z,24.89
2018-05-25T13:59:02.863Z,26.04
2018-05-25T14:01:31.204Z,26.64
2018-05-25T14:03:59.538Z,27.10
2018-05-25T14:06:27.876Z,25.19
2018-05-25T14:08:56.206Z,24.24
2018-05-25T14:11:24.603Z,26.42
2018-05-25T14:13:52.979Z,27.14
2018-05-25T14:16:21.803Z,28.44
2018-05-25T14:18:50.226Z,30.51
2018-05-25T14:21:18.637Z,28.17
2018-05-25T14:23:46.995Z,26.36
2018-05-25T14:26:15.364Z,27.23
2018-05-25T14:28:43.697Z,27.36
2018-05-25T14:31:12.025Z,25.88
2018-05-25T14:33:40.359Z,25.77
2018-05-25T14:36:08.838Z,25.69
2018-05-25T14:38:37.255Z,24.59
2018-05-25T14:41:05.585Z,25.09
2018-05-25T14:43:34.016Z,26.15
2018-05-25T14:46:02.396Z,25.77
2018-05-25T14:48:30.766Z,26.11
2018-05-25T14:50:59.129Z,26.36
2018-05-25T14:53:27.460Z,25.71
2018-05-25T14:55:55.776Z,26.28
2018-05-25T14:58:24.156Z,26.94
2018-05-25T15:00:52.520Z,27.70
2018-05-25T15:03:20.949Z,26.90
2018-05-25T15:05:49.342Z,26.17
2018-05-25T15:08:17.668Z,26.30
2018-05-25T15:10:46.024Z,26.54
2018-05-25T15:13:14.350Z,25.94
2018-05-25T15:15:42.710Z,25.91
2018-05-25T15:18:11.033Z,27.26
2018-05-25T15:20:39.385Z,26.88
2018-05-25T15:23:07.712Z,27.06
2018-05-25T15:25:36.081Z,27.55
2018-05-25T15:28:04.415Z,27.25
2018-05-25T15:30:32.741Z,26.71
2018-05-25T15:33:01.072Z,26.64
2018-05-25T15:35:29.455Z,26.80
2018-05-25T15:37:57.832Z,26.91
2018-05-25T15:40:26.172Z,27.80
2018-05-25T15:42:54.491Z,26.42
2018-05-25T15:45:22.823Z,28.10
2018-05-25T15:47:51.153Z,27.36
2018-05-25T15:50:19.484Z,27.55
2018-05-25T15:52:47.815Z,27.72
2018-05-25T15:55:17.771Z,27.81
2018-05-25T15:57:46.115Z,27.92
2018-05-25T16:00:14.463Z,27.24
2018-05-25T16:02:42.779Z,28.01
2018-05-25T16:05:11.163Z,29.52
2018-05-25T16:07:39.487Z,29.80
2018-05-25T16:10:07.857Z,30.11
2018-05-25T16:12:36.239Z,30.64
2018-05-25T16:15:04.676Z,31.24
2018-05-25T16:17:33.055Z,32.89
2018-05-25T16:20:01.412Z,31.91
2018-05-25T16:22:29.736Z,32.39
2018-05-25T16:24:58.061Z,32.79
2018-05-25T16:27:26.503Z,32.67
2018-05-25T16:29:54.819Z,33.38
2018-05-25T16:32:23.295Z,34.09
2018-05-25T16:34:51.621Z,33.81
2018-05-25T16:37:19.983Z,33.65
2018-05-25T16:39:48.339Z,33.67
2018-05-25T16:42:16.669Z,34.83
2018-05-25T16:44:44.985Z,35.05
2018-05-25T16:47:13.419Z,34.15
2018-05-25T16:49:41.769Z,35.18
2018-05-25T16:52:10.123Z,36.32
2018-05-25T16:54:38.449Z,35.52
2018-05-25T16:57:06.875Z,36.53
2018-05-25T16:59:35.307Z,37.17
2018-05-25T17:02:03.660Z,37.10
2018-05-25T17:04:31.980Z,36.63
2018-05-25T17:07:00.334Z,37.01
2018-05-25T17:09:28.757Z,36.66
2018-05-25T17:11:57.076Z,36.92
2018-05-25T17:14:25.448Z,37.69
2018-05-25T17:16:53.950Z,37.25
2018-05-25T17:19:22.285Z,37.86
2018-05-25T17:21:50.716Z,38.13
2018-05-25T17:24:19.148Z,38.04
2018-05-25T17:26:47.502Z,37.95
2018-05-25T17:29:15.887Z,37.86
2018-05-25T17:31:44.280Z,38.37
2018-05-25T17:34:12.687Z,39.22
2018-05-25T17:36:41.125Z,38.30
2018-05-25T17:39:09.464Z,38.54
2018-05-25T17:41:37.856Z,39.36
2018-05-25T17:44:06.248Z,39.96
2018-05-25T17:46:34.639Z,39.76
2018-05-25T17:49:03.028Z,39.58
2018-05-25T17:51:31.349Z,39.63
2018-05-25T17:53:59.707Z,40.35
2018-05-25T17:56:30.717Z,40.88
2018-05-25T17:58:59.808Z,41.33
2018-05-25T18:01:28.180Z,41.75
2018-05-25T18:03:56.555Z,41.53
2018-05-25T18:06:24.879Z,41.77
2018-05-25T18:08:53.251Z,42.65
2018-05-25T18:11:21.627Z,42.51
2018-05-25T18:13:49.986Z,42.46
2018-05-25T18:16:18.374Z,42.55
2018-05-25T18:18:46.715Z,42.97
2018-05-25T18:21:15.056Z,43.53
2018-05-25T18:23:43.400Z,44.49
2018-05-25T18:26:11.894Z,43.42
2018-05-25T18:28:40.218Z,43.96
2018-05-25T18:31:09.449Z,44.39
2018-05-25T18:33:41.653Z,45.69
2018-05-25T18:36:10.071Z,44.91
2018-05-25T18:38:38.472Z,44.95
2018-05-25T18:41:06.831Z,45.47
2018-05-25T18:43:35.177Z,46.06
2018-05-25T18:46:03.531Z,46.97
2018-05-25T18:48:31.849Z,47.75
2018-05-25T18:51:00.175Z,49.51
2018-05-25T18:53:28.499Z,48.01
2018-05-25T18:55:56.827Z,48.60
2018-05-25T18:58:25.150Z,48.63
2018-05-25T19:00:53.523Z,49.32
2018-05-25T19:03:21.847Z,50.46
2018-05-25T19:05:50.162Z,50.46
2018-05-25T19:08:18.491Z,50.69
2018-05-25T19:10:46.819Z,52.13
2018-05-25T19:13:15.150Z,49.21
2018-05-25T19:15:43.549Z,49.19
2018-05-25T19:18:11.919Z,53.99
2018-05-25T19:20:40.407Z,53.09
2018-05-25T19:23:09.060Z,50.61
2018-05-25T19:25:37.412Z,50.35
2018-05-25T19:28:05.797Z,53.16
2018-05-25T19:30:34.158Z,53.49
2018-05-25T19:33:02.495Z,53.24
2018-05-25T19:35:30.882Z,53.41
2018-05-25T19:37:59.235Z,53.85
2018-05-25T19:40:27.622Z,53.71
2018-05-25T19:42:56.304Z,54.22
2018-05-25T19:45:24.701Z,54.61
2018-05-25T19:47:53.015Z,55.82
2018-05-25T19:50:21.354Z,55.57
2018-05-25T19:52:49.715Z,56.69
2018-05-25T19:55:18.120Z,56.79
2018-05-25T19:57:46.457Z,57.03
2018-05-25T20:00:14.924Z,56.92
2018-05-25T20:02:43.287Z,57.78
2018-05-25T20:05:11.742Z,57.64
2018-05-25T20:07:40.091Z,57.45
2018-05-25T20:10:08.435Z,57.58
2018-05-25T20:12:36.778Z,57.03
2018-05-25T20:15:05.120Z,57.67
2018-05-25T20:17:34.089Z,57.69
2018-05-25T20:20:02.450Z,56.38
2018-05-25T20:22:30.962Z,57.11
2018-05-25T20:24:59.371Z,57.75
2018-05-25T20:27:28.504Z,56.07
2018-05-25T20:29:57.770Z,56.41
2018-05-25T20:32:27.143Z,54.66
2018-05-25T20:34:55.512Z,55.60
2018-05-25T20:37:23.968Z,56.25
2018-05-25T20:39:52.352Z,54.67
2018-05-25T20:42:20.703Z,56.44
2018-05-25T20:44:49.076Z,55.36
2018-05-25T20:47:17.442Z,56.58
2018-05-25T20:49:45.841Z,56.60
2018-05-25T20:52:14.211Z,55.27
2018-05-25T20:54:42.809Z,55.97
2018-05-25T20:57:11.222Z,56.23
2018-05-25T20:59:39.590Z,57.37
2018-05-25T21:02:07.935Z,56.25
2018-05-25T21:04:36.273Z,55.94
2018-05-25T21:07:04.910Z,55.11
2018-05-25T21:09:33.915Z,54.18
2018-05-25T21:12:02.348Z,54.44
2018-05-25T21:14:30.684Z,57.91
2018-05-25T21:16:59.048Z,55.58
2018-05-25T21:19:27.383Z,57.41
2018-05-25T21:21:56.115Z,56.42
2018-05-25T21:24:24.460Z,56.52
2018-05-25T21:26:52.831Z,56.27
2018-05-25T21:29:21.235Z,55.47
2018-05-25T21:31:49.640Z,55.68
2018-05-25T21:34:17.992Z,56.40
2018-05-25T21:36:46.482Z,57.28
2018-05-25T21:39:14.882Z,57.15
2018-05-25T21:41:43.220Z,57.71
2018-05-25T21:44:11.592Z,58.68
2018-05-25T21:46:39.975Z,57.23
2018-05-25T21:49:08.308Z,58.51
2018-05-25T21:51:36.688Z,59.33
2018-05-25T21:54:05.046Z,59.67
2018-05-25T21:56:33.842Z,59.13
2018-05-25T21:59:02.221Z,60.13
2018-05-25T22:01:31.404Z,60.20
2018-05-25T22:03:59.747Z,61.03
2018-05-25T22:06:28.165Z,60.72
2018-05-25T22:08:56.544Z,60.76
2018-05-25T22:11:24.913Z,61.12
2018-05-25T22:13:53.322Z,61.31
2018-05-25T22:16:21.677Z,63.11
2018-05-25T22:18:50.026Z,63.07
2018-05-25T22:21:18.404Z,63.29
2018-05-25T22:23:46.751Z,63.54
2018-05-25T22:26:15.091Z,63.64
2018-05-25T22:28:44.232Z,63.13
2018-05-25T22:31:12.573Z,64.33
2018-05-25T22:33:40.885Z,64.44
2018-05-25T22:36:09.231Z,64.76
2018-05-25T22:38:37.560Z,64.94
2018-05-25T22:41:05.939Z,64.35
2018-05-25T22:43:46.323Z,64.21
2018-05-25T22:46:26.697Z,64.44
2018-05-25T22:49:07.067Z,65.22
2018-05-25T22:51:47.036Z,65.34
2018-05-25T22:54:27.594Z,65.80
2018-05-25T22:56:55.951Z,66.37
2018-05-25T22:59:24.321Z,66.78
2018-05-25T23:01:52.662Z,66.45
2018-05-25T23:04:21.103Z,67.22
2018-05-25T23:06:49.631Z,66.58
2018-05-25T23:09:18.012Z,66.72
2018-05-25T23:11:46.357Z,67.12
2018-05-25T23:14:14.746Z,67.00
2018-05-25T23:16:43.155Z,67.43
2018-05-25T23:19:11.543Z,66.85
2018-05-25T23:21:39.887Z,67.25
2018-05-25T23:24:08.210Z,67.74
2018-05-25T23:26:36.628Z,66.54
2018-05-25T23:29:05.015Z,66.37
2018-05-25T23:31:33.412Z,67.37
2018-05-25T23:34:01.865Z,67.56
2018-05-25T23:36:30.190Z,66.64
2018-05-25T23:38:59.388Z,66.74
2018-05-25T23:41:28.583Z,67.74
2018-05-25T23:43:56.976Z,67.98
2018-05-25T23:46:25.291Z,68.22
2018-05-25T23:48:53.624Z,67.40
2018-05-25T23:51:21.959Z,68.47
2018-05-25T23:53:50.298Z,69.31
2018-05-25T23:56:18.657Z,69.79
2018-05-25T23:58:47.041Z,69.74
